sensor_id;sensor_type;location;lat;lon;timestamp;pressure;altitude;pressure_sealevel;temperature;humidity
81243;BME280;70716;50.074;14.496;2023-11-19T00:00:15;99261.44;;;2.36;86.55
81243;BME280;70716;50.074;14.496;2023-11-19T00:02:41;99260.69;;;2.41;86.74
81243;BME280;70716;50.074;14.496;2023-11-19T00:05:07;99245.00;;;2.32;87.29
81243;BME280;70716;50.074;14.496;2023-11-19T00:07:40;99236.34;;;2.25;86.75
81243;BME280;70716;50.074;14.496;2023-11-19T00:10:14;99223.78;;;2.31;86.73
81243;BME280;70716;50.074;14.496;2023-11-19T00:12:44;99216.84;;;2.40;86.92
81243;BME280;70716;50.074;14.496;2023-11-19T00:15:10;99208.47;;;2.37;87.54
81243;BME280;70716;50.074;14.496;2023-11-19T00:17:40;99201.06;;;2.49;86.59
81243;BME280;70716;50.074;14.496;2023-11-19T00:20:10;99186.53;;;2.50;85.08
81243;BME280;70716;50.074;14.496;2023-11-19T00:22:39;99179.50;;;2.44;85.81
81243;BME280;70716;50.074;14.496;2023-11-19T00:25:05;99189.34;;;2.33;86.50
81243;BME280;70716;50.074;14.496;2023-11-19T00:27:31;99184.50;;;2.30;87.16
81243;BME280;70716;50.074;14.496;2023-11-19T00:29:56;99181.53;;;2.31;87.49
81243;BME280;70716;50.074;14.496;2023-11-19T00:32:22;99168.13;;;2.37;87.52
81243;BME280;70716;50.074;14.496;2023-11-19T00:34:47;99159.50;;;2.35;87.15
81243;BME280;70716;50.074;14.496;2023-11-19T00:37:14;99163.22;;;2.28;87.39
81243;BME280;70716;50.074;14.496;2023-11-19T00:39:40;99153.25;;;2.24;88.13
81243;BME280;70716;50.074;14.496;2023-11-19T00:42:06;99157.59;;;2.30;87.16
81243;BME280;70716;50.074;14.496;2023-11-19T00:44:31;99153.84;;;2.31;87.56
81243;BME280;70716;50.074;14.496;2023-11-19T00:46:56;99149.78;;;2.28;88.02
81243;BME280;70716;50.074;14.496;2023-11-19T00:49:22;99132.84;;;2.28;88.03
81243;BME280;70716;50.074;14.496;2023-11-19T00:51:47;99136.91;;;2.36;87.21
81243;BME280;70716;50.074;14.496;2023-11-19T00:54:12;99126.41;;;2.34;87.14
81243;BME280;70716;50.074;14.496;2023-11-19T00:56:38;99122.63;;;2.30;87.66
81243;BME280;70716;50.074;14.496;2023-11-19T00:59:03;99126.66;;;2.32;87.28
81243;BME280;70716;50.074;14.496;2023-11-19T01:01:29;99118.91;;;2.36;87.52
81243;BME280;70716;50.074;14.496;2023-11-19T01:03:55;99116.19;;;2.31;88.63
81243;BME280;70716;50.074;14.496;2023-11-19T01:06:32;99113.78;;;2.35;87.47
81243;BME280;70716;50.074;14.496;2023-11-19T01:08:57;99117.56;;;2.39;87.35
81243;BME280;70716;50.074;14.496;2023-11-19T01:11:24;99118.34;;;2.34;88.49
81243;BME280;70716;50.074;14.496;2023-11-19T01:13:50;99122.41;;;2.37;87.30
81243;BME280;70716;50.074;14.496;2023-11-19T01:16:15;99107.59;;;2.34;87.80
81243;BME280;70716;50.074;14.496;2023-11-19T01:18:44;99100.81;;;2.26;88.29
81243;BME280;70716;50.074;14.496;2023-11-19T01:21:10;99095.25;;;2.38;87.67
81243;BME280;70716;50.074;14.496;2023-11-19T01:23:35;99094.75;;;2.41;88.83
81243;BME280;70716;50.074;14.496;2023-11-19T01:26:05;99082.41;;;2.45;87.27
81243;BME280;70716;50.074;14.496;2023-11-19T01:28:33;99079.50;;;2.52;87.29
81243;BME280;70716;50.074;14.496;2023-11-19T01:30:59;99069.03;;;2.55;87.71
81243;BME280;70716;50.074;14.496;2023-11-19T01:33:24;99068.47;;;2.53;87.30
81243;BME280;70716;50.074;14.496;2023-11-19T01:35:50;99070.09;;;2.54;87.14
81243;BME280;70716;50.074;14.496;2023-11-19T01:38:15;99051.53;;;2.53;87.83
81243;BME280;70716;50.074;14.496;2023-11-19T01:40:41;99048.84;;;2.53;86.88
81243;BME280;70716;50.074;14.496;2023-11-19T01:43:06;99038.66;;;2.60;86.64
81243;BME280;70716;50.074;14.496;2023-11-19T01:45:33;99032.81;;;2.73;85.31
81243;BME280;70716;50.074;14.496;2023-11-19T01:48:00;99022.66;;;2.85;84.91
81243;BME280;70716;50.074;14.496;2023-11-19T01:50:29;99012.97;;;2.84;84.77
81243;BME280;70716;50.074;14.496;2023-11-19T01:52:55;99004.34;;;2.82;85.33
81243;BME280;70716;50.074;14.496;2023-11-19T01:55:24;98993.88;;;2.86;84.49
81243;BME280;70716;50.074;14.496;2023-11-19T01:57:51;98996.19;;;2.67;85.97
81243;BME280;70716;50.074;14.496;2023-11-19T02:00:21;98999.91;;;2.61;86.64
81243;BME280;70716;50.074;14.496;2023-11-19T02:02:47;99009.59;;;2.62;86.42
81243;BME280;70716;50.074;14.496;2023-11-19T02:05:13;99017.44;;;2.69;86.42
81243;BME280;70716;50.074;14.496;2023-11-19T02:07:39;99011.53;;;2.67;86.69
81243;BME280;70716;50.074;14.496;2023-11-19T02:10:05;99007.69;;;2.57;86.67
81243;BME280;70716;50.074;14.496;2023-11-19T02:12:31;98999.41;;;2.64;87.32
81243;BME280;70716;50.074;14.496;2023-11-19T02:15:04;98993.47;;;2.62;86.86
81243;BME280;70716;50.074;14.496;2023-11-19T02:17:30;98978.91;;;2.58;86.98
81243;BME280;70716;50.074;14.496;2023-11-19T02:20:06;98976.53;;;2.67;87.09
81243;BME280;70716;50.074;14.496;2023-11-19T02:22:37;98952.59;;;2.65;86.30
81243;BME280;70716;50.074;14.496;2023-11-19T02:25:07;98941.09;;;2.80;86.13
81243;BME280;70716;50.074;14.496;2023-11-19T02:30:12;98943.50;;;2.81;85.80
81243;BME280;70716;50.074;14.496;2023-11-19T02:32:41;98947.00;;;2.82;86.19
81243;BME280;70716;50.074;14.496;2023-11-19T02:35:07;98947.81;;;2.82;86.90
81243;BME280;70716;50.074;14.496;2023-11-19T02:37:35;98942.19;;;2.84;86.60
81243;BME280;70716;50.074;14.496;2023-11-19T02:40:00;98942.66;;;2.71;87.19
81243;BME280;70716;50.074;14.496;2023-11-19T02:42:28;98944.28;;;2.72;87.97
81243;BME280;70716;50.074;14.496;2023-11-19T02:44:53;98938.91;;;2.72;87.54
81243;BME280;70716;50.074;14.496;2023-11-19T02:47:19;98951.00;;;2.74;88.59
81243;BME280;70716;50.074;14.496;2023-11-19T02:49:46;98940.81;;;2.76;87.80
81243;BME280;70716;50.074;14.496;2023-11-19T02:52:13;98927.03;;;2.68;88.17
81243;BME280;70716;50.074;14.496;2023-11-19T02:54:43;98921.94;;;2.71;88.47
81243;BME280;70716;50.074;14.496;2023-11-19T02:57:08;98931.63;;;2.72;88.04
81243;BME280;70716;50.074;14.496;2023-11-19T02:59:38;98909.56;;;2.75;87.69
81243;BME280;70716;50.074;14.496;2023-11-19T03:02:07;98896.13;;;2.75;87.00
81243;BME280;70716;50.074;14.496;2023-11-19T03:04:37;98901.47;;;2.70;87.75
81243;BME280;70716;50.074;14.496;2023-11-19T03:07:09;98904.47;;;2.79;87.63
81243;BME280;70716;50.074;14.496;2023-11-19T03:09:34;98903.97;;;2.87;86.78
81243;BME280;70716;50.074;14.496;2023-11-19T03:12:03;98895.03;;;2.71;88.21
81243;BME280;70716;50.074;14.496;2023-11-19T03:14:33;98881.88;;;2.80;88.10
81243;BME280;70716;50.074;14.496;2023-11-19T03:16:59;98874.63;;;2.85;87.66
81243;BME280;70716;50.074;14.496;2023-11-19T03:19:25;98866.03;;;2.88;87.65
81243;BME280;70716;50.074;14.496;2023-11-19T03:21:52;98861.44;;;2.84;86.96
81243;BME280;70716;50.074;14.496;2023-11-19T03:24:17;98852.56;;;2.88;86.90
81243;BME280;70716;50.074;14.496;2023-11-19T03:26:42;98859.00;;;2.97;86.54
81243;BME280;70716;50.074;14.496;2023-11-19T03:29:08;98850.66;;;2.94;86.86
81243;BME280;70716;50.074;14.496;2023-11-19T03:31:33;98842.59;;;2.94;87.24
81243;BME280;70716;50.074;14.496;2023-11-19T03:33:58;98833.16;;;2.91;87.09
81243;BME280;70716;50.074;14.496;2023-11-19T03:36:24;98840.44;;;3.01;86.24
81243;BME280;70716;50.074;14.496;2023-11-19T03:38:49;98846.91;;;3.05;85.61
81243;BME280;70716;50.074;14.496;2023-11-19T03:41:15;98842.88;;;3.08;85.11
81243;BME280;70716;50.074;14.496;2023-11-19T03:43:42;98831.59;;;3.16;84.28
81243;BME280;70716;50.074;14.496;2023-11-19T03:46:20;98816.50;;;3.15;84.80
81243;BME280;70716;50.074;14.496;2023-11-19T03:48:49;98816.22;;;3.11;85.14
81243;BME280;70716;50.074;14.496;2023-11-19T03:51:15;98821.06;;;3.04;85.82
81243;BME280;70716;50.074;14.496;2023-11-19T03:53:48;98820.28;;;3.09;85.60
81243;BME280;70716;50.074;14.496;2023-11-19T03:56:14;98814.31;;;2.91;86.82
81243;BME280;70716;50.074;14.496;2023-11-19T03:58:39;98801.13;;;2.90;87.12
81243;BME280;70716;50.074;14.496;2023-11-19T04:01:05;98805.19;;;2.97;86.12
81243;BME280;70716;50.074;14.496;2023-11-19T04:03:31;98805.72;;;2.94;86.33
81243;BME280;70716;50.074;14.496;2023-11-19T04:05:56;98810.28;;;2.99;86.49
81243;BME280;70716;50.074;14.496;2023-11-19T04:08:24;98804.63;;;3.01;86.81
81243;BME280;70716;50.074;14.496;2023-11-19T04:10:50;98798.19;;;2.96;86.79
81243;BME280;70716;50.074;14.496;2023-11-19T04:13:15;98793.06;;;3.00;87.46
81243;BME280;70716;50.074;14.496;2023-11-19T04:15:41;98785.25;;;3.09;86.51
81243;BME280;70716;50.074;14.496;2023-11-19T04:18:06;98786.88;;;3.05;87.04
81243;BME280;70716;50.074;14.496;2023-11-19T04:20:32;98780.94;;;3.03;86.96
81243;BME280;70716;50.074;14.496;2023-11-19T04:22:57;98777.44;;;2.92;88.02
81243;BME280;70716;50.074;14.496;2023-11-19T04:25:25;98761.28;;;2.92;87.19
81243;BME280;70716;50.074;14.496;2023-11-19T04:27:51;98766.69;;;2.87;88.46
81243;BME280;70716;50.074;14.496;2023-11-19T04:30:17;98760.47;;;2.91;88.22
81243;BME280;70716;50.074;14.496;2023-11-19T04:32:43;98741.66;;;2.86;88.26
81243;BME280;70716;50.074;14.496;2023-11-19T04:35:09;98738.72;;;2.88;88.23
81243;BME280;70716;50.074;14.496;2023-11-19T04:37:34;98738.16;;;2.91;88.18
81243;BME280;70716;50.074;14.496;2023-11-19T04:40:00;98743.00;;;2.89;88.74
81243;BME280;70716;50.074;14.496;2023-11-19T04:42:26;98740.28;;;2.89;88.85
81243;BME280;70716;50.074;14.496;2023-11-19T04:44:52;98722.56;;;2.83;88.17
81243;BME280;70716;50.074;14.496;2023-11-19T04:47:17;98717.72;;;2.75;89.16
81243;BME280;70716;50.074;14.496;2023-11-19T04:49:43;98720.69;;;2.83;89.60
81243;BME280;70716;50.074;14.496;2023-11-19T04:52:08;98717.19;;;2.83;88.73
81243;BME280;70716;50.074;14.496;2023-11-19T04:54:34;98710.44;;;2.85;89.29
81243;BME280;70716;50.074;14.496;2023-11-19T04:56:59;98689.47;;;2.77;90.32
81243;BME280;70716;50.074;14.496;2023-11-19T04:59:25;98675.72;;;2.74;90.13
81243;BME280;70716;50.074;14.496;2023-11-19T05:01:50;98675.47;;;2.80;89.50
81243;BME280;70716;50.074;14.496;2023-11-19T05:04:16;98674.38;;;2.71;90.42
81243;BME280;70716;50.074;14.496;2023-11-19T05:06:41;98668.19;;;2.76;90.71
81243;BME280;70716;50.074;14.496;2023-11-19T05:09:07;98668.47;;;2.74;90.41
81243;BME280;70716;50.074;14.496;2023-11-19T05:11:33;98656.09;;;2.78;90.15
81243;BME280;70716;50.074;14.496;2023-11-19T05:14:00;98657.97;;;2.83;90.11
81243;BME280;70716;50.074;14.496;2023-11-19T05:16:25;98648.81;;;2.79;90.32
81243;BME280;70716;50.074;14.496;2023-11-19T05:18:51;98649.09;;;2.82;89.94
81243;BME280;70716;50.074;14.496;2023-11-19T05:21:17;98660.13;;;2.86;90.36
81243;BME280;70716;50.074;14.496;2023-11-19T05:23:43;98656.09;;;2.83;90.10
81243;BME280;70716;50.074;14.496;2023-11-19T05:26:08;98658.78;;;2.88;90.41
81243;BME280;70716;50.074;14.496;2023-11-19T05:28:38;98662.25;;;2.94;90.72
81243;BME280;70716;50.074;14.496;2023-11-19T05:31:05;98642.84;;;2.97;89.50
81243;BME280;70716;50.074;14.496;2023-11-19T05:33:31;98644.72;;;3.02;89.84
81243;BME280;70716;50.074;14.496;2023-11-19T05:35:56;98633.97;;;3.07;89.01
81243;BME280;70716;50.074;14.496;2023-11-19T05:38:22;98618.88;;;3.06;88.60
81243;BME280;70716;50.074;14.496;2023-11-19T05:40:47;98621.59;;;3.01;89.35
81243;BME280;70716;50.074;14.496;2023-11-19T05:43:13;98613.50;;;3.06;89.51
81243;BME280;70716;50.074;14.496;2023-11-19T05:45:40;98610.00;;;3.00;89.28
81243;BME280;70716;50.074;14.496;2023-11-19T05:48:05;98606.25;;;3.01;89.66
81243;BME280;70716;50.074;14.496;2023-11-19T05:50:31;98613.22;;;3.02;89.09
81243;BME280;70716;50.074;14.496;2023-11-19T05:52:56;98604.06;;;3.08;89.44
81243;BME280;70716;50.074;14.496;2023-11-19T05:55:21;98602.47;;;3.07;89.38
81243;BME280;70716;50.074;14.496;2023-11-19T05:57:48;98608.09;;;3.11;89.67
81243;BME280;70716;50.074;14.496;2023-11-19T06:00:14;98600.59;;;2.97;89.74
81243;BME280;70716;50.074;14.496;2023-11-19T06:02:40;98601.13;;;3.05;90.27
81243;BME280;70716;50.074;14.496;2023-11-19T06:05:06;98592.75;;;3.06;90.68
81243;BME280;70716;50.074;14.496;2023-11-19T06:07:32;98589.53;;;3.04;90.35
81243;BME280;70716;50.074;14.496;2023-11-19T06:09:58;98582.56;;;2.93;91.53
81243;BME280;70716;50.074;14.496;2023-11-19T06:12:23;98577.22;;;2.88;91.92
81243;BME280;70716;50.074;14.496;2023-11-19T06:14:48;98575.34;;;2.88;91.93
81243;BME280;70716;50.074;14.496;2023-11-19T06:17:14;98573.47;;;2.84;91.96
81243;BME280;70716;50.074;14.496;2023-11-19T06:19:39;98576.09;;;2.99;91.08
81243;BME280;70716;50.074;14.496;2023-11-19T06:22:04;98586.59;;;2.95;91.78
81243;BME280;70716;50.074;14.496;2023-11-19T06:24:30;98606.50;;;2.99;91.81
81243;BME280;70716;50.074;14.496;2023-11-19T06:26:55;98597.34;;;3.01;91.92
81243;BME280;70716;50.074;14.496;2023-11-19T06:29:21;98569.63;;;3.00;92.03
81243;BME280;70716;50.074;14.496;2023-11-19T06:31:46;98563.44;;;3.05;91.69
81243;BME280;70716;50.074;14.496;2023-11-19T06:34:14;98563.16;;;3.01;92.00
81243;BME280;70716;50.074;14.496;2023-11-19T06:36:42;98566.66;;;3.07;91.91
81243;BME280;70716;50.074;14.496;2023-11-19T06:39:11;98585.47;;;3.12;91.75
81243;BME280;70716;50.074;14.496;2023-11-19T06:41:36;98587.09;;;3.13;91.94
81243;BME280;70716;50.074;14.496;2023-11-19T06:44:05;98578.47;;;3.21;91.63
81243;BME280;70716;50.074;14.496;2023-11-19T06:46:30;98564.72;;;3.17;91.89
81243;BME280;70716;50.074;14.496;2023-11-19T06:48:56;98564.72;;;3.22;91.12
81243;BME280;70716;50.074;14.496;2023-11-19T06:51:25;98574.69;;;3.17;91.28
81243;BME280;70716;50.074;14.496;2023-11-19T06:53:50;98578.72;;;3.24;91.21
81243;BME280;70716;50.074;14.496;2023-11-19T06:56:23;98569.84;;;3.19;91.22
81243;BME280;70716;50.074;14.496;2023-11-19T06:58:50;98562.81;;;3.28;90.39
81243;BME280;70716;50.074;14.496;2023-11-19T07:01:16;98562.84;;;3.18;91.22
81243;BME280;70716;50.074;14.496;2023-11-19T07:03:43;98568.22;;;3.18;92.02
81243;BME280;70716;50.074;14.496;2023-11-19T07:06:10;98555.56;;;3.18;92.00
81243;BME280;70716;50.074;14.496;2023-11-19T07:08:35;98553.41;;;3.25;91.65
81243;BME280;70716;50.074;14.496;2023-11-19T07:11:01;98573.06;;;3.21;91.03
81243;BME280;70716;50.074;14.496;2023-11-19T07:13:27;98568.50;;;3.21;91.21
81243;BME280;70716;50.074;14.496;2023-11-19T07:15:55;98560.13;;;3.23;91.81
81243;BME280;70716;50.074;14.496;2023-11-19T07:18:24;98557.16;;;3.24;91.84
81243;BME280;70716;50.074;14.496;2023-11-19T07:20:50;98566.28;;;3.34;91.33
81243;BME280;70716;50.074;14.496;2023-11-19T07:23:18;98561.97;;;3.38;90.53
81243;BME280;70716;50.074;14.496;2023-11-19T07:25:44;98560.91;;;3.34;90.94
81243;BME280;70716;50.074;14.496;2023-11-19T07:28:12;98558.19;;;3.39;91.64
81243;BME280;70716;50.074;14.496;2023-11-19T07:30:38;98553.06;;;3.42;90.55
81243;BME280;70716;50.074;14.496;2023-11-19T07:33:06;98549.31;;;3.38;90.94
81243;BME280;70716;50.074;14.496;2023-11-19T07:35:32;98541.41;;;3.47;90.60
81243;BME280;70716;50.074;14.496;2023-11-19T07:37:57;98540.31;;;3.53;90.78
81243;BME280;70716;50.074;14.496;2023-11-19T07:40:23;98526.53;;;3.59;90.47
81243;BME280;70716;50.074;14.496;2023-11-19T07:42:49;98546.72;;;3.67;90.22
81243;BME280;70716;50.074;14.496;2023-11-19T07:45:15;98540.25;;;3.68;90.48
81243;BME280;70716;50.074;14.496;2023-11-19T07:47:40;98545.28;;;3.80;90.09
81243;BME280;70716;50.074;14.496;2023-11-19T07:50:06;98548.47;;;3.87;90.51
81243;BME280;70716;50.074;14.496;2023-11-19T07:52:31;98553.31;;;3.90;90.44
81243;BME280;70716;50.074;14.496;2023-11-19T07:54:57;98556.84;;;3.85;89.88
81243;BME280;70716;50.074;14.496;2023-11-19T07:57:22;98552.75;;;3.93;90.06
81243;BME280;70716;50.074;14.496;2023-11-19T07:59:49;98552.78;;;3.88;90.33
81243;BME280;70716;50.074;14.496;2023-11-19T08:02:14;98558.44;;;3.91;90.88
81243;BME280;70716;50.074;14.496;2023-11-19T08:04:39;98551.19;;;3.87;90.88
81243;BME280;70716;50.074;14.496;2023-11-19T08:07:10;98537.75;;;3.77;91.03
81243;BME280;70716;50.074;14.496;2023-11-19T08:09:38;98554.75;;;3.77;91.57
81243;BME280;70716;50.074;14.496;2023-11-19T08:12:05;98540.97;;;3.79;91.63
81243;BME280;70716;50.074;14.496;2023-11-19T08:14:35;98534.72;;;3.88;91.23
81243;BME280;70716;50.074;14.496;2023-11-19T08:17:00;98532.81;;;3.94;92.00
81243;BME280;70716;50.074;14.496;2023-11-19T08:19:26;98536.25;;;4.00;91.17
81243;BME280;70716;50.074;14.496;2023-11-19T08:21:51;98525.66;;;4.08;91.46
81243;BME280;70716;50.074;14.496;2023-11-19T08:24:17;98537.00;;;4.05;91.49
81243;BME280;70716;50.074;14.496;2023-11-19T08:26:42;98532.13;;;4.07;90.93
81243;BME280;70716;50.074;14.496;2023-11-19T08:29:08;98516.47;;;4.09;91.05
81243;BME280;70716;50.074;14.496;2023-11-19T08:31:34;98509.72;;;4.12;91.09
81243;BME280;70716;50.074;14.496;2023-11-19T08:34:00;98509.16;;;4.15;91.66
81243;BME280;70716;50.074;14.496;2023-11-19T08:36:26;98503.75;;;4.15;91.55
81243;BME280;70716;50.074;14.496;2023-11-19T08:38:53;98503.41;;;4.26;90.97
81243;BME280;70716;50.074;14.496;2023-11-19T08:41:19;98504.84;;;4.14;91.76
81243;BME280;70716;50.074;14.496;2023-11-19T08:43:45;98504.03;;;4.13;91.57
81243;BME280;70716;50.074;14.496;2023-11-19T08:46:11;98512.66;;;4.15;91.12
81243;BME280;70716;50.074;14.496;2023-11-19T08:48:37;98504.81;;;4.19;91.36
81243;BME280;70716;50.074;14.496;2023-11-19T08:51:02;98511.84;;;4.15;91.78
81243;BME280;70716;50.074;14.496;2023-11-19T08:53:29;98516.41;;;4.19;91.92
81243;BME280;70716;50.074;14.496;2023-11-19T08:55:55;98510.41;;;4.27;91.97
81243;BME280;70716;50.074;14.496;2023-11-19T08:58:20;98513.09;;;4.27;92.34
81243;BME280;70716;50.074;14.496;2023-11-19T09:00:47;98519.81;;;4.30;92.09
81243;BME280;70716;50.074;14.496;2023-11-19T09:03:13;98521.16;;;4.32;92.31
81243;BME280;70716;50.074;14.496;2023-11-19T09:05:38;98520.53;;;4.41;92.27
81243;BME280;70716;50.074;14.496;2023-11-19T09:08:04;98527.53;;;4.42;92.88
81243;BME280;70716;50.074;14.496;2023-11-19T09:10:30;98515.38;;;4.44;92.70
81243;BME280;70716;50.074;14.496;2023-11-19T09:12:55;98523.91;;;4.56;92.23
81243;BME280;70716;50.074;14.496;2023-11-19T09:15:20;98520.63;;;4.59;92.25
81243;BME280;70716;50.074;14.496;2023-11-19T09:17:46;98521.66;;;4.63;92.81
81243;BME280;70716;50.074;14.496;2023-11-19T09:20:11;98522.41;;;4.69;92.39
81243;BME280;70716;50.074;14.496;2023-11-19T09:22:41;98513.34;;;4.84;92.04
81243;BME280;70716;50.074;14.496;2023-11-19T09:25:07;98517.25;;;4.96;90.96
81243;BME280;70716;50.074;14.496;2023-11-19T09:27:33;98515.53;;;5.06;90.18
81243;BME280;70716;50.074;14.496;2023-11-19T09:29:58;98515.13;;;5.17;90.95
81243;BME280;70716;50.074;14.496;2023-11-19T09:32:24;98488.31;;;5.21;90.60
81243;BME280;70716;50.074;14.496;2023-11-19T09:34:56;98488.28;;;5.45;89.97
81243;BME280;70716;50.074;14.496;2023-11-19T09:37:21;98499.91;;;5.64;87.22
81243;BME280;70716;50.074;14.496;2023-11-19T09:39:47;98506.78;;;5.75;88.42
81243;BME280;70716;50.074;14.496;2023-11-19T09:42:12;98503.84;;;5.90;88.93
81243;BME280;70716;50.074;14.496;2023-11-19T09:44:38;98505.53;;;6.05;88.67
81243;BME280;70716;50.074;14.496;2023-11-19T09:47:05;98505.66;;;6.14;87.50
81243;BME280;70716;50.074;14.496;2023-11-19T09:49:32;98502.94;;;6.14;88.70
81243;BME280;70716;50.074;14.496;2023-11-19T09:51:58;98501.38;;;6.26;89.01
81243;BME280;70716;50.074;14.496;2023-11-19T09:54:24;98510.97;;;6.19;89.87
81243;BME280;70716;50.074;14.496;2023-11-19T09:56:49;98499.91;;;6.34;89.92
81243;BME280;70716;50.074;14.496;2023-11-19T09:59:15;98498.25;;;6.19;88.84
81243;BME280;70716;50.074;14.496;2023-11-19T10:01:42;98494.28;;;6.31;89.39
81243;BME280;70716;50.074;14.496;2023-11-19T10:04:08;98488.41;;;6.56;89.22
81243;BME280;70716;50.074;14.496;2023-11-19T10:06:35;98479.69;;;6.73;89.03
81243;BME280;70716;50.074;14.496;2023-11-19T10:09:00;98479.00;;;6.81;88.91
81243;BME280;70716;50.074;14.496;2023-11-19T10:11:26;98477.38;;;6.93;89.14
81243;BME280;70716;50.074;14.496;2023-11-19T10:13:53;98477.28;;;6.99;89.39
81243;BME280;70716;50.074;14.496;2023-11-19T10:16:19;98456.34;;;6.90;89.00
81243;BME280;70716;50.074;14.496;2023-11-19T10:18:46;98468.66;;;7.10;89.55
81243;BME280;70716;50.074;14.496;2023-11-19T10:21:14;98459.56;;;7.42;89.35
81243;BME280;70716;50.074;14.496;2023-11-19T10:23:55;98458.75;;;7.78;88.81
81243;BME280;70716;50.074;14.496;2023-11-19T10:26:25;98457.69;;;8.10;87.34
81243;BME280;70716;50.074;14.496;2023-11-19T10:28:51;98439.38;;;8.38;87.01
81243;BME280;70716;50.074;14.496;2023-11-19T10:31:18;98442.84;;;8.69;85.80
81243;BME280;70716;50.074;14.496;2023-11-19T10:33:44;98448.31;;;8.78;85.17
81243;BME280;70716;50.074;14.496;2023-11-19T10:36:12;98448.53;;;8.90;84.59
81243;BME280;70716;50.074;14.496;2023-11-19T10:38:37;98436.47;;;8.74;83.51
81243;BME280;70716;50.074;14.496;2023-11-19T10:41:03;98430.78;;;8.92;84.33
81243;BME280;70716;50.074;14.496;2023-11-19T10:43:30;98429.88;;;9.06;84.31
81243;BME280;70716;50.074;14.496;2023-11-19T10:46:13;98412.47;;;9.15;82.79
81243;BME280;70716;50.074;14.496;2023-11-19T10:48:39;98420.78;;;9.27;82.97
81243;BME280;70716;50.074;14.496;2023-11-19T10:51:06;98428.63;;;9.20;83.29
81243;BME280;70716;50.074;14.496;2023-11-19T10:53:37;98426.69;;;9.30;83.25
81243;BME280;70716;50.074;14.496;2023-11-19T10:56:06;98433.44;;;9.41;82.91
81243;BME280;70716;50.074;14.496;2023-11-19T10:58:36;98435.34;;;9.32;82.94
81243;BME280;70716;50.074;14.496;2023-11-19T11:01:11;98431.19;;;9.25;83.33
81243;BME280;70716;50.074;14.496;2023-11-19T11:03:39;98427.84;;;9.37;82.97
81243;BME280;70716;50.074;14.496;2023-11-19T11:06:05;98428.81;;;9.41;83.10
81243;BME280;70716;50.074;14.496;2023-11-19T11:08:31;98423.84;;;9.43;83.54
81243;BME280;70716;50.074;14.496;2023-11-19T11:10:57;98412.81;;;9.57;82.52
81243;BME280;70716;50.074;14.496;2023-11-19T11:13:24;98417.31;;;9.62;82.72
81243;BME280;70716;50.074;14.496;2023-11-19T11:15:50;98413.13;;;9.73;82.83
81243;BME280;70716;50.074;14.496;2023-11-19T11:18:17;98418.59;;;9.81;81.51
81243;BME280;70716;50.074;14.496;2023-11-19T11:20:47;98408.94;;;9.84;80.95
81243;BME280;70716;50.074;14.496;2023-11-19T11:32:35;98396.09;;;10.28;80.24
81243;BME280;70716;50.074;14.496;2023-11-19T11:38:07;98406.16;;;10.36;79.20
81243;BME280;70716;50.074;14.496;2023-11-19T11:40:34;98410.50;;;10.37;78.76
81243;BME280;70716;50.074;14.496;2023-11-19T11:42:59;98410.50;;;10.28;79.22
81243;BME280;70716;50.074;14.496;2023-11-19T11:45:39;98413.47;;;10.44;79.23
81243;BME280;70716;50.074;14.496;2023-11-19T11:48:12;98408.81;;;10.53;77.85
81243;BME280;70716;50.074;14.496;2023-11-19T11:50:53;98408.97;;;10.48;77.75
81243;BME280;70716;50.074;14.496;2023-11-19T11:53:23;98396.00;;;10.45;78.11
81243;BME280;70716;50.074;14.496;2023-11-19T11:58:22;98404.41;;;10.31;78.07
81243;BME280;70716;50.074;14.496;2023-11-19T12:00:51;98394.31;;;10.32;77.61
81243;BME280;70716;50.074;14.496;2023-11-19T12:03:20;98397.38;;;10.30;77.55
81243;BME280;70716;50.074;14.496;2023-11-19T12:05:47;98409.84;;;10.31;78.10
81243;BME280;70716;50.074;14.496;2023-11-19T12:08:14;98397.84;;;10.32;77.67
81243;BME280;70716;50.074;14.496;2023-11-19T12:10:51;98394.31;;;10.32;78.03
81243;BME280;70716;50.074;14.496;2023-11-19T12:13:23;98405.06;;;10.28;77.54
81243;BME280;70716;50.074;14.496;2023-11-19T12:18:23;98388.09;;;10.22;77.77
81243;BME280;70716;50.074;14.496;2023-11-19T12:20:49;98390.00;;;10.31;77.73
81243;BME280;70716;50.074;14.496;2023-11-19T12:23:14;98385.31;;;10.40;77.32
81243;BME280;70716;50.074;14.496;2023-11-19T12:25:41;98387.34;;;10.51;78.17
81243;BME280;70716;50.074;14.496;2023-11-19T12:28:11;98379.09;;;10.69;76.80
81243;BME280;70716;50.074;14.496;2023-11-19T12:30:37;98386.56;;;10.80;75.61
81243;BME280;70716;50.074;14.496;2023-11-19T12:33:08;98387.50;;;10.84;75.94
81243;BME280;70716;50.074;14.496;2023-11-19T12:35:41;98388.59;;;10.92;75.67
81243;BME280;70716;50.074;14.496;2023-11-19T12:38:08;98379.06;;;10.98;75.98
81243;BME280;70716;50.074;14.496;2023-11-19T12:40:34;98356.81;;;10.96;75.27
81243;BME280;70716;50.074;14.496;2023-11-19T12:43:02;98371.53;;;10.74;75.92
81243;BME280;70716;50.074;14.496;2023-11-19T12:45:36;98360.84;;;10.61;76.52
81243;BME280;70716;50.074;14.496;2023-11-19T12:48:06;98364.44;;;10.44;76.76
81243;BME280;70716;50.074;14.496;2023-11-19T12:53:17;98347.72;;;10.24;77.98
81243;BME280;70716;50.074;14.496;2023-11-19T12:55:43;98349.50;;;10.20;78.25
81243;BME280;70716;50.074;14.496;2023-11-19T12:58:09;98349.66;;;10.07;78.91
81243;BME280;70716;50.074;14.496;2023-11-19T13:00:34;98359.94;;;10.01;78.56
81243;BME280;70716;50.074;14.496;2023-11-19T13:02:59;98359.44;;;9.99;78.70
81243;BME280;70716;50.074;14.496;2023-11-19T13:05:29;98363.47;;;9.93;79.93
81243;BME280;70716;50.074;14.496;2023-11-19T13:08:05;98353.41;;;9.85;79.69
81243;BME280;70716;50.074;14.496;2023-11-19T13:10:32;98347.47;;;9.83;80.15
81243;BME280;70716;50.074;14.496;2023-11-19T13:13:06;98338.81;;;9.89;79.23
81243;BME280;70716;50.074;14.496;2023-11-19T13:15:34;98338.63;;;10.03;79.98
81243;BME280;70716;50.074;14.496;2023-11-19T13:18:00;98333.31;;;10.15;79.61
81243;BME280;70716;50.074;14.496;2023-11-19T13:20:25;98335.38;;;10.18;79.54